sensor_id;sensor_type;location;lat;lon;timestamp;P1;durP1;ratioP1;P2;durP2;ratioP2
59300;SDS011;45073;52.740;6.784;2023-03-29T00:00:32;7.18;;;2.40;;
59300;SDS011;45073;52.740;6.784;2023-03-29T00:02:59;6.80;;;2.35;;
59300;SDS011;45073;52.740;6.784;2023-03-29T00:05:25;6.40;;;2.60;;
59300;SDS011;45073;52.740;6.784;2023-03-29T00:07:51;7.38;;;2.50;;
59300;SDS011;45073;52.740;6.784;2023-03-29T00:10:26;7.53;;;3.30;;
59300;SDS011;45073;52.740;6.784;2023-03-29T00:12:52;6.13;;;2.00;;
59300;SDS011;45073;52.740;6.784;2023-03-29T00:15:18;7.15;;;2.55;;
59300;SDS011;45073;52.740;6.784;2023-03-29T00:17:44;5.78;;;2.22;;
59300;SDS011;45073;52.740;6.784;2023-03-29T00:20:10;6.93;;;2.53;;
59300;SDS011;45073;52.740;6.784;2023-03-29T00:22:36;7.13;;;2.75;;
59300;SDS011;45073;52.740;6.784;2023-03-29T00:25:04;8.10;;;2.67;;
59300;SDS011;45073;52.740;6.784;2023-03-29T00:27:31;8.23;;;2.53;;
59300;SDS011;45073;52.740;6.784;2023-03-29T00:29:57;8.95;;;2.92;;
59300;SDS011;45073;52.740;6.784;2023-03-29T00:32:23;8.32;;;2.90;;
59300;SDS011;45073;52.740;6.784;2023-03-29T00:34:49;7.72;;;2.60;;
59300;SDS011;45073;52.740;6.784;2023-03-29T00:37:16;10.90;;;3.05;;
59300;SDS011;45073;52.740;6.784;2023-03-29T00:39:43;8.93;;;2.83;;
59300;SDS011;45073;52.740;6.784;2023-03-29T00:42:13;10.07;;;2.95;;
59300;SDS011;45073;52.740;6.784;2023-03-29T00:50:20;8.40;;;2.63;;
59300;SDS011;45073;52.740;6.784;2023-03-29T00:52:52;7.20;;;2.75;;
59300;SDS011;45073;52.740;6.784;2023-03-29T00:55:23;7.80;;;3.00;;
59300;SDS011;45073;52.740;6.784;2023-03-29T00:57:51;8.63;;;4.63;;
59300;SDS011;45073;52.740;6.784;2023-03-29T01:00:21;10.48;;;3.45;;
59300;SDS011;45073;52.740;6.784;2023-03-29T01:02:52;7.00;;;2.80;;
59300;SDS011;45073;52.740;6.784;2023-03-29T01:05:45;8.25;;;3.15;;
59300;SDS011;45073;52.740;6.784;2023-03-29T01:08:13;8.02;;;3.58;;
59300;SDS011;45073;52.740;6.784;2023-03-29T01:13:15;8.50;;;3.15;;
59300;SDS011;45073;52.740;6.784;2023-03-29T01:15:50;8.13;;;2.65;;
59300;SDS011;45073;52.740;6.784;2023-03-29T01:18:18;8.63;;;2.78;;
59300;SDS011;45073;52.740;6.784;2023-03-29T01:24:03;7.55;;;3.35;;
59300;SDS011;45073;52.740;6.784;2023-03-29T01:27:07;10.48;;;3.42;;
59300;SDS011;45073;52.740;6.784;2023-03-29T01:29:55;9.32;;;3.55;;
59300;SDS011;45073;52.740;6.784;2023-03-29T01:32:37;9.85;;;3.97;;
59300;SDS011;45073;52.740;6.784;2023-03-29T01:35:09;11.65;;;4.30;;
59300;SDS011;45073;52.740;6.784;2023-03-29T01:37:47;9.48;;;3.53;;
59300;SDS011;45073;52.740;6.784;2023-03-29T01:40:24;8.55;;;3.28;;
59300;SDS011;45073;52.740;6.784;2023-03-29T01:48:09;10.43;;;4.18;;
59300;SDS011;45073;52.740;6.784;2023-03-29T01:53:40;12.43;;;4.40;;
59300;SDS011;45073;52.740;6.784;2023-03-29T01:56:17;10.05;;;4.20;;
59300;SDS011;45073;52.740;6.784;2023-03-29T01:58:48;10.70;;;4.65;;
59300;SDS011;45073;52.740;6.784;2023-03-29T02:01:18;10.05;;;4.70;;
59300;SDS011;45073;52.740;6.784;2023-03-29T02:03:50;12.82;;;6.28;;
59300;SDS011;45073;52.740;6.784;2023-03-29T02:06:19;11.23;;;5.07;;
59300;SDS011;45073;52.740;6.784;2023-03-29T02:08:47;11.98;;;6.05;;
59300;SDS011;45073;52.740;6.784;2023-03-29T02:11:15;11.25;;;5.25;;
59300;SDS011;45073;52.740;6.784;2023-03-29T02:13:41;12.88;;;5.10;;
59300;SDS011;45073;52.740;6.784;2023-03-29T02:16:10;13.05;;;5.63;;
59300;SDS011;45073;52.740;6.784;2023-03-29T02:18:41;13.75;;;6.55;;
59300;SDS011;45073;52.740;6.784;2023-03-29T02:21:10;12.23;;;6.33;;
59300;SDS011;45073;52.740;6.784;2023-03-29T02:23:50;13.80;;;6.15;;
59300;SDS011;45073;52.740;6.784;2023-03-29T02:26:19;11.95;;;6.10;;
59300;SDS011;45073;52.740;6.784;2023-03-29T02:28:46;12.50;;;6.03;;
59300;SDS011;45073;52.740;6.784;2023-03-29T02:31:14;12.95;;;6.30;;
59300;SDS011;45073;52.740;6.784;2023-03-29T02:34:19;12.57;;;6.20;;
59300;SDS011;45073;52.740;6.784;2023-03-29T02:36:46;14.52;;;6.55;;
59300;SDS011;45073;52.740;6.784;2023-03-29T02:39:16;12.40;;;6.57;;
59300;SDS011;45073;52.740;6.784;2023-03-29T02:41:44;15.90;;;7.40;;
59300;SDS011;45073;52.740;6.784;2023-03-29T02:44:13;14.40;;;6.90;;
59300;SDS011;45073;52.740;6.784;2023-03-29T02:46:42;16.70;;;7.22;;
59300;SDS011;45073;52.740;6.784;2023-03-29T02:49:08;12.20;;;7.15;;
59300;SDS011;45073;52.740;6.784;2023-03-29T02:51:35;13.60;;;7.03;;
59300;SDS011;45073;52.740;6.784;2023-03-29T02:54:08;15.95;;;7.60;;
59300;SDS011;45073;52.740;6.784;2023-03-29T02:56:46;13.27;;;6.22;;
59300;SDS011;45073;52.740;6.784;2023-03-29T02:59:13;15.80;;;7.05;;
59300;SDS011;45073;52.740;6.784;2023-03-29T03:01:43;15.07;;;8.15;;
59300;SDS011;45073;52.740;6.784;2023-03-29T03:04:09;16.00;;;7.18;;
59300;SDS011;45073;52.740;6.784;2023-03-29T03:06:36;16.88;;;7.15;;
59300;SDS011;45073;52.740;6.784;2023-03-29T03:09:03;14.60;;;8.00;;
59300;SDS011;45073;52.740;6.784;2023-03-29T03:11:30;15.15;;;6.90;;
59300;SDS011;45073;52.740;6.784;2023-03-29T03:13:56;14.75;;;7.38;;
59300;SDS011;45073;52.740;6.784;2023-03-29T03:16:21;15.43;;;7.13;;
59300;SDS011;45073;52.740;6.784;2023-03-29T03:18:48;11.88;;;6.43;;
59300;SDS011;45073;52.740;6.784;2023-03-29T03:21:15;14.10;;;7.63;;
59300;SDS011;45073;52.740;6.784;2023-03-29T03:23:42;15.73;;;7.72;;
59300;SDS011;45073;52.740;6.784;2023-03-29T03:26:09;15.10;;;7.57;;
59300;SDS011;45073;52.740;6.784;2023-03-29T03:28:35;13.40;;;7.38;;
59300;SDS011;45073;52.740;6.784;2023-03-29T03:31:01;15.35;;;6.80;;
59300;SDS011;45073;52.740;6.784;2023-03-29T03:33:27;12.63;;;6.82;;
59300;SDS011;45073;52.740;6.784;2023-03-29T03:35:53;15.40;;;7.43;;
59300;SDS011;45073;52.740;6.784;2023-03-29T03:38:26;14.50;;;7.35;;
59300;SDS011;45073;52.740;6.784;2023-03-29T03:40:55;13.52;;;6.70;;
59300;SDS011;45073;52.740;6.784;2023-03-29T03:43:22;13.05;;;6.88;;
59300;SDS011;45073;52.740;6.784;2023-03-29T03:45:47;13.82;;;7.15;;
59300;SDS011;45073;52.740;6.784;2023-03-29T03:48:13;13.07;;;6.88;;
59300;SDS011;45073;52.740;6.784;2023-03-29T03:50:39;14.40;;;7.28;;
59300;SDS011;45073;52.740;6.784;2023-03-29T03:53:05;12.15;;;6.47;;
59300;SDS011;45073;52.740;6.784;2023-03-29T03:55:31;14.20;;;7.03;;
59300;SDS011;45073;52.740;6.784;2023-03-29T03:57:57;16.13;;;7.00;;
59300;SDS011;45073;52.740;6.784;2023-03-29T04:00:24;13.50;;;6.38;;
59300;SDS011;45073;52.740;6.784;2023-03-29T04:02:51;15.98;;;7.88;;
59300;SDS011;45073;52.740;6.784;2023-03-29T04:05:18;14.85;;;7.13;;
59300;SDS011;45073;52.740;6.784;2023-03-29T04:07:44;14.05;;;6.40;;
59300;SDS011;45073;52.740;6.784;2023-03-29T04:10:09;13.35;;;7.28;;
59300;SDS011;45073;52.740;6.784;2023-03-29T04:12:35;12.77;;;6.10;;
59300;SDS011;45073;52.740;6.784;2023-03-29T04:15:02;16.55;;;6.70;;
59300;SDS011;45073;52.740;6.784;2023-03-29T04:17:28;12.95;;;6.38;;
59300;SDS011;45073;52.740;6.784;2023-03-29T04:19:53;12.57;;;6.78;;
59300;SDS011;45073;52.740;6.784;2023-03-29T04:22:19;15.25;;;6.40;;
59300;SDS011;45073;52.740;6.784;2023-03-29T04:24:45;13.02;;;6.53;;
59300;SDS011;45073;52.740;6.784;2023-03-29T04:27:10;12.48;;;6.68;;
59300;SDS011;45073;52.740;6.784;2023-03-29T04:29:36;13.95;;;6.93;;
59300;SDS011;45073;52.740;6.784;2023-03-29T04:32:02;13.18;;;6.38;;
59300;SDS011;45073;52.740;6.784;2023-03-29T04:34:27;13.77;;;7.32;;
59300;SDS011;45073;52.740;6.784;2023-03-29T04:36:53;13.35;;;6.47;;
59300;SDS011;45073;52.740;6.784;2023-03-29T04:39:19;13.75;;;6.78;;
59300;SDS011;45073;52.740;6.784;2023-03-29T04:41:44;14.32;;;6.22;;
59300;SDS011;45073;52.740;6.784;2023-03-29T04:44:11;15.30;;;7.03;;
59300;SDS011;45073;52.740;6.784;2023-03-29T04:46:38;12.60;;;6.45;;
59300;SDS011;45073;52.740;6.784;2023-03-29T04:49:04;14.68;;;6.43;;
59300;SDS011;45073;52.740;6.784;2023-03-29T04:51:31;15.60;;;6.43;;
59300;SDS011;45073;52.740;6.784;2023-03-29T04:53:57;11.82;;;6.22;;
59300;SDS011;45073;52.740;6.784;2023-03-29T04:56:23;13.63;;;7.07;;
59300;SDS011;45073;52.740;6.784;2023-03-29T04:58:49;13.80;;;6.65;;
59300;SDS011;45073;52.740;6.784;2023-03-29T05:01:15;13.90;;;6.93;;
59300;SDS011;45073;52.740;6.784;2023-03-29T05:03:41;15.18;;;6.15;;
59300;SDS011;45073;52.740;6.784;2023-03-29T05:06:07;14.20;;;6.85;;
59300;SDS011;45073;52.740;6.784;2023-03-29T05:08:36;14.15;;;7.22;;
59300;SDS011;45073;52.740;6.784;2023-03-29T05:11:04;13.75;;;6.50;;
59300;SDS011;45073;52.740;6.784;2023-03-29T05:13:33;12.38;;;6.28;;
59300;SDS011;45073;52.740;6.784;2023-03-29T05:15:59;14.38;;;7.78;;
59300;SDS011;45073;52.740;6.784;2023-03-29T05:18:26;14.10;;;6.97;;
59300;SDS011;45073;52.740;6.784;2023-03-29T05:20:52;15.98;;;7.03;;
59300;SDS011;45073;52.740;6.784;2023-03-29T05:23:18;14.90;;;7.43;;
59300;SDS011;45073;52.740;6.784;2023-03-29T05:25:46;15.27;;;7.47;;
59300;SDS011;45073;52.740;6.784;2023-03-29T05:28:13;14.30;;;7.15;;
59300;SDS011;45073;52.740;6.784;2023-03-29T05:30:39;13.68;;;6.10;;
59300;SDS011;45073;52.740;6.784;2023-03-29T05:33:04;14.10;;;6.93;;
59300;SDS011;45073;52.740;6.784;2023-03-29T05:35:31;12.13;;;6.13;;
59300;SDS011;45073;52.740;6.784;2023-03-29T05:37:57;12.57;;;6.40;;
59300;SDS011;45073;52.740;6.784;2023-03-29T05:40:22;13.85;;;7.15;;
59300;SDS011;45073;52.740;6.784;2023-03-29T05:42:51;16.10;;;7.85;;
59300;SDS011;45073;52.740;6.784;2023-03-29T05:45:17;15.70;;;7.53;;
59300;SDS011;45073;52.740;6.784;2023-03-29T05:47:43;14.25;;;7.07;;
59300;SDS011;45073;52.740;6.784;2023-03-29T05:50:10;12.70;;;7.05;;
59300;SDS011;45073;52.740;6.784;2023-03-29T05:52:36;14.02;;;7.18;;
59300;SDS011;45073;52.740;6.784;2023-03-29T05:55:03;13.63;;;7.70;;
59300;SDS011;45073;52.740;6.784;2023-03-29T05:57:29;13.90;;;7.60;;
59300;SDS011;45073;52.740;6.784;2023-03-29T05:59:55;15.50;;;6.97;;
59300;SDS011;45073;52.740;6.784;2023-03-29T06:02:21;17.33;;;7.40;;
59300;SDS011;45073;52.740;6.784;2023-03-29T06:04:47;16.63;;;7.57;;
59300;SDS011;45073;52.740;6.784;2023-03-29T06:07:12;15.40;;;7.38;;
59300;SDS011;45073;52.740;6.784;2023-03-29T06:09:39;15.02;;;7.50;;
59300;SDS011;45073;52.740;6.784;2023-03-29T06:12:05;12.90;;;6.75;;
59300;SDS011;45073;52.740;6.784;2023-03-29T06:14:31;14.80;;;6.22;;
59300;SDS011;45073;52.740;6.784;2023-03-29T06:16:57;17.90;;;7.35;;
59300;SDS011;45073;52.740;6.784;2023-03-29T06:19:24;14.02;;;7.13;;
59300;SDS011;45073;52.740;6.784;2023-03-29T06:21:50;16.63;;;7.50;;
59300;SDS011;45073;52.740;6.784;2023-03-29T06:24:17;13.95;;;6.72;;
59300;SDS011;45073;52.740;6.784;2023-03-29T06:26:43;16.25;;;7.38;;
59300;SDS011;45073;52.740;6.784;2023-03-29T06:29:09;13.73;;;6.82;;
59300;SDS011;45073;52.740;6.784;2023-03-29T06:31:35;12.82;;;6.70;;
59300;SDS011;45073;52.740;6.784;2023-03-29T06:34:00;11.98;;;7.03;;
59300;SDS011;45073;52.740;6.784;2023-03-29T06:36:28;13.80;;;7.05;;
59300;SDS011;45073;52.740;6.784;2023-03-29T06:38:54;13.27;;;6.65;;
59300;SDS011;45073;52.740;6.784;2023-03-29T06:41:20;13.23;;;7.20;;
59300;SDS011;45073;52.740;6.784;2023-03-29T06:43:45;13.88;;;6.75;;
59300;SDS011;45073;52.740;6.784;2023-03-29T06:46:11;16.42;;;7.70;;
59300;SDS011;45073;52.740;6.784;2023-03-29T06:48:37;14.20;;;6.80;;
59300;SDS011;45073;52.740;6.784;2023-03-29T06:51:05;14.85;;;6.63;;
59300;SDS011;45073;52.740;6.784;2023-03-29T06:53:31;12.90;;;6.80;;
59300;SDS011;45073;52.740;6.784;2023-03-29T06:55:58;13.18;;;6.50;;
59300;SDS011;45073;52.740;6.784;2023-03-29T06:58:25;13.10;;;6.68;;
59300;SDS011;45073;52.740;6.784;2023-03-29T07:00:51;18.92;;;7.57;;
59300;SDS011;45073;52.740;6.784;2023-03-29T07:03:17;12.32;;;6.38;;
59300;SDS011;45073;52.740;6.784;2023-03-29T07:05:47;14.48;;;6.40;;
59300;SDS011;45073;52.740;6.784;2023-03-29T07:08:15;16.45;;;6.70;;
59300;SDS011;45073;52.740;6.784;2023-03-29T07:10:46;11.55;;;6.13;;
59300;SDS011;45073;52.740;6.784;2023-03-29T07:13:16;13.85;;;6.35;;
59300;SDS011;45073;52.740;6.784;2023-03-29T07:15:43;11.00;;;5.82;;
59300;SDS011;45073;52.740;6.784;2023-03-29T07:18:09;13.10;;;6.57;;
59300;SDS011;45073;52.740;6.784;2023-03-29T07:20:36;18.10;;;6.82;;
59300;SDS011;45073;52.740;6.784;2023-03-29T07:23:02;15.00;;;6.15;;
59300;SDS011;45073;52.740;6.784;2023-03-29T07:25:28;11.60;;;5.80;;
59300;SDS011;45073;52.740;6.784;2023-03-29T07:27:54;11.50;;;6.22;;
59300;SDS011;45073;52.740;6.784;2023-03-29T07:30:22;13.90;;;6.18;;
59300;SDS011;45073;52.740;6.784;2023-03-29T07:32:52;12.45;;;5.47;;
59300;SDS011;45073;52.740;6.784;2023-03-29T07:35:18;14.10;;;6.57;;
59300;SDS011;45073;52.740;6.784;2023-03-29T07:37:45;11.40;;;5.88;;
59300;SDS011;45073;52.740;6.784;2023-03-29T07:40:12;11.02;;;5.35;;
59300;SDS011;45073;52.740;6.784;2023-03-29T07:42:46;15.45;;;5.63;;
59300;SDS011;45073;52.740;6.784;2023-03-29T07:45:13;11.57;;;5.45;;
59300;SDS011;45073;52.740;6.784;2023-03-29T07:47:44;13.15;;;5.28;;
59300;SDS011;45073;52.740;6.784;2023-03-29T07:50:11;13.00;;;5.25;;
59300;SDS011;45073;52.740;6.784;2023-03-29T07:52:38;14.82;;;6.03;;
59300;SDS011;45073;52.740;6.784;2023-03-29T07:55:05;13.82;;;5.43;;
59300;SDS011;45073;52.740;6.784;2023-03-29T07:57:32;10.63;;;4.93;;
59300;SDS011;45073;52.740;6.784;2023-03-29T07:59:59;9.85;;;5.13;;
59300;SDS011;45073;52.740;6.784;2023-03-29T08:02:26;11.88;;;5.07;;
59300;SDS011;45073;52.740;6.784;2023-03-29T08:04:53;11.88;;;5.25;;
59300;SDS011;45073;52.740;6.784;2023-03-29T08:07:18;11.38;;;5.15;;
59300;SDS011;45073;52.740;6.784;2023-03-29T08:09:45;13.35;;;5.05;;
59300;SDS011;45073;52.740;6.784;2023-03-29T08:12:10;11.63;;;5.05;;
59300;SDS011;45073;52.740;6.784;2023-03-29T08:14:36;9.75;;;4.65;;
59300;SDS011;45073;52.740;6.784;2023-03-29T08:17:02;9.70;;;5.05;;
59300;SDS011;45073;52.740;6.784;2023-03-29T08:19:28;10.95;;;5.07;;
59300;SDS011;45073;52.740;6.784;2023-03-29T08:21:54;10.38;;;4.93;;
59300;SDS011;45073;52.740;6.784;2023-03-29T08:24:20;9.63;;;4.70;;
59300;SDS011;45073;52.740;6.784;2023-03-29T08:26:46;13.75;;;5.20;;
59300;SDS011;45073;52.740;6.784;2023-03-29T08:29:12;9.27;;;4.88;;
59300;SDS011;45073;52.740;6.784;2023-03-29T08:31:38;10.13;;;5.43;;
59300;SDS011;45073;52.740;6.784;2023-03-29T08:34:04;13.38;;;5.78;;
59300;SDS011;45073;52.740;6.784;2023-03-29T08:36:30;11.15;;;4.65;;
59300;SDS011;45073;52.740;6.784;2023-03-29T08:38:56;11.07;;;5.07;;
59300;SDS011;45073;52.740;6.784;2023-03-29T08:46:54;11.40;;;5.18;;
59300;SDS011;45073;52.740;6.784;2023-03-29T08:49:29;12.27;;;4.75;;
59300;SDS011;45073;52.740;6.784;2023-03-29T08:51:57;10.70;;;4.97;;
59300;SDS011;45073;52.740;6.784;2023-03-29T08:54:33;11.60;;;5.22;;
59300;SDS011;45073;52.740;6.784;2023-03-29T08:57:10;11.02;;;4.75;;
59300;SDS011;45073;52.740;6.784;2023-03-29T08:59:48;12.55;;;5.05;;
59300;SDS011;45073;52.740;6.784;2023-03-29T09:02:16;14.15;;;5.05;;
59300;SDS011;45073;52.740;6.784;2023-03-29T09:04:47;10.90;;;4.75;;
59300;SDS011;45073;52.740;6.784;2023-03-29T09:07:16;13.68;;;5.78;;
59300;SDS011;45073;52.740;6.784;2023-03-29T09:09:42;10.52;;;4.72;;
59300;SDS011;45073;52.740;6.784;2023-03-29T09:15:14;10.38;;;5.25;;
59300;SDS011;45073;52.740;6.784;2023-03-29T09:20:59;11.25;;;4.90;;
59300;SDS011;45073;52.740;6.784;2023-03-29T09:23:36;9.43;;;4.63;;
59300;SDS011;45073;52.740;6.784;2023-03-29T09:26:21;10.02;;;5.47;;
59300;SDS011;45073;52.740;6.784;2023-03-29T09:31:28;10.93;;;5.13;;
59300;SDS011;45073;52.740;6.784;2023-03-29T09:34:12;13.73;;;5.03;;
59300;SDS011;45073;52.740;6.784;2023-03-29T09:36:50;10.73;;;5.15;;
59300;SDS011;45073;52.740;6.784;2023-03-29T09:39:25;12.18;;;5.57;;
59300;SDS011;45073;52.740;6.784;2023-03-29T09:41:54;10.75;;;4.78;;
59300;SDS011;45073;52.740;6.784;2023-03-29T09:44:32;11.10;;;5.45;;
59300;SDS011;45073;52.740;6.784;2023-03-29T09:47:22;14.02;;;6.30;;
59300;SDS011;45073;52.740;6.784;2023-03-29T09:49:52;11.23;;;4.97;;
59300;SDS011;45073;52.740;6.784;2023-03-29T09:52:23;13.70;;;6.00;;
59300;SDS011;45073;52.740;6.784;2023-03-29T09:54:48;12.25;;;5.75;;
59300;SDS011;45073;52.740;6.784;2023-03-29T09:57:16;13.77;;;5.80;;
59300;SDS011;45073;52.740;6.784;2023-03-29T09:59:44;15.10;;;5.78;;
59300;SDS011;45073;52.740;6.784;2023-03-29T10:02:11;14.68;;;5.97;;
59300;SDS011;45073;52.740;6.784;2023-03-29T10:04:38;13.45;;;6.38;;
59300;SDS011;45073;52.740;6.784;2023-03-29T10:07:06;14.70;;;6.22;;
59300;SDS011;45073;52.740;6.784;2023-03-29T10:09:38;13.82;;;6.07;;
59300;SDS011;45073;52.740;6.784;2023-03-29T10:12:09;12.75;;;6.13;;
59300;SDS011;45073;52.740;6.784;2023-03-29T10:14:37;14.32;;;6.50;;
59300;SDS011;45073;52.740;6.784;2023-03-29T10:17:23;14.10;;;6.65;;
59300;SDS011;45073;52.740;6.784;2023-03-29T10:19:51;12.00;;;6.55;;
59300;SDS011;45073;52.740;6.784;2023-03-29T10:22:25;16.02;;;6.65;;
59300;SDS011;45073;52.740;6.784;2023-03-29T10:25:12;16.55;;;6.53;;
59300;SDS011;45073;52.740;6.784;2023-03-29T10:27:41;12.25;;;5.97;;
59300;SDS011;45073;52.740;6.784;2023-03-29T10:30:11;12.55;;;6.68;;
59300;SDS011;45073;52.740;6.784;2023-03-29T10:32:50;12.38;;;6.60;;
59300;SDS011;45073;52.740;6.784;2023-03-29T10:35:22;13.73;;;6.53;;
59300;SDS011;45073;52.740;6.784;2023-03-29T10:38:02;12.48;;;6.47;;
59300;SDS011;45073;52.740;6.784;2023-03-29T10:40:32;11.60;;;6.43;;
59300;SDS011;45073;52.740;6.784;2023-03-29T10:43:00;13.32;;;6.20;;
59300;SDS011;45073;52.740;6.784;2023-03-29T10:45:36;13.52;;;6.85;;
59300;SDS011;45073;52.740;6.784;2023-03-29T10:48:03;12.15;;;6.22;;
59300;SDS011;45073;52.740;6.784;2023-03-29T10:50:31;11.13;;;5.97;;
59300;SDS011;45073;52.740;6.784;2023-03-29T10:52:59;14.45;;;6.35;;
59300;SDS011;45073;52.740;6.784;2023-03-29T10:55:34;12.73;;;6.43;;
59300;SDS011;45073;52.740;6.784;2023-03-29T10:58:15;13.07;;;6.53;;
59300;SDS011;45073;52.740;6.784;2023-03-29T11:01:02;14.90;;;6.68;;
59300;SDS011;45073;52.740;6.784;2023-03-29T11:25:55;11.63;;;5.75;;
59300;SDS011;45073;52.740;6.784;2023-03-29T11:31:23;13.52;;;6.70;;
59300;SDS011;45073;52.740;6.784;2023-03-29T11:42:17;11.27;;;6.72;;
59300;SDS011;45073;52.740;6.784;2023-03-29T11:44:47;12.07;;;5.65;;
59300;SDS011;45073;52.740;6.784;2023-03-29T11:47:17;10.70;;;5.57;;
59300;SDS011;45073;52.740;6.784;2023-03-29T11:49:47;10.98;;;5.25;;
59300;SDS011;45073;52.740;6.784;2023-03-29T11:52:52;13.10;;;5.78;;
59300;SDS011;45073;52.740;6.784;2023-03-29T11:55:32;12.70;;;6.05;;
59300;SDS011;45073;52.740;6.784;2023-03-29T11:58:06;10.52;;;5.55;;
59300;SDS011;45073;52.740;6.784;2023-03-29T12:00:56;10.60;;;5.38;;
59300;SDS011;45073;52.740;6.784;2023-03-29T12:06:30;10.25;;;5.38;;
59300;SDS011;45073;52.740;6.784;2023-03-29T12:11:44;13.90;;;6.72;;
59300;SDS011;45073;52.740;6.784;2023-03-29T12:16:59;14.00;;;6.72;;
59300;SDS011;45073;52.740;6.784;2023-03-29T12:22:02;11.70;;;5.32;;
59300;SDS011;45073;52.740;6.784;2023-03-29T12:24:31;12.05;;;6.20;;
59300;SDS011;45073;52.740;6.784;2023-03-29T12:35:25;11.93;;;6.07;;
59300;SDS011;45073;52.740;6.784;2023-03-29T12:40:41;11.32;;;6.30;;
59300;SDS011;45073;52.740;6.784;2023-03-29T12:48:38;15.02;;;6.50;;
59300;SDS011;45073;52.740;6.784;2023-03-29T12:51:18;11.55;;;6.30;;
59300;SDS011;45073;52.740;6.784;2023-03-29T12:53:48;10.32;;;5.85;;
59300;SDS011;45073;52.740;6.784;2023-03-29T12:56:18;13.15;;;6.85;;
59300;SDS011;45073;52.740;6.784;2023-03-29T13:01:29;14.15;;;7.13;;
59300;SDS011;45073;52.740;6.784;2023-03-29T13:12:06;12.32;;;6.30;;
59300;SDS011;45073;52.740;6.784;2023-03-29T13:14:45;13.07;;;9.30;;
59300;SDS011;45073;52.740;6.784;2023-03-29T13:17:26;11.80;;;6.68;;
59300;SDS011;45073;52.740;6.784;2023-03-29T13:20:06;14.13;;;9.07;;
59300;SDS011;45073;52.740;6.784;2023-03-29T13:22:46;15.00;;;7.50;;
59300;SDS011;45073;52.740;6.784;2023-03-29T13:34:30;13.23;;;9.77;;
59300;SDS011;45073;52.740;6.784;2023-03-29T13:37:00;13.98;;;7.55;;
59300;SDS011;45073;52.740;6.784;2023-03-29T13:39:46;11.80;;;7.30;;
59300;SDS011;45073;52.740;6.784;2023-03-29T13:42:18;14.20;;;8.63;;
59300;SDS011;45073;52.740;6.784;2023-03-29T13:45:03;13.18;;;10.30;;
59300;SDS011;45073;52.740;6.784;2023-03-29T13:47:48;14.43;;;7.47;;
59300;SDS011;45073;52.740;6.784;2023-03-29T13:50:51;13.13;;;8.15;;
59300;SDS011;45073;52.740;6.784;2023-03-29T13:53:28;13.73;;;7.82;;
59300;SDS011;45073;52.740;6.784;2023-03-29T13:55:58;11.98;;;7.85;;
59300;SDS011;45073;52.740;6.784;2023-03-29T14:01:10;12.55;;;7.57;;
59300;SDS011;45073;52.740;6.784;2023-03-29T14:03:44;15.40;;;8.20;;
59300;SDS011;45073;52.740;6.784;2023-03-29T14:06:13;14.82;;;8.38;;
59300;SDS011;45073;52.740;6.784;2023-03-29T14:08:42;13.80;;;8.02;;
59300;SDS011;45073;52.740;6.784;2023-03-29T14:11:17;14.60;;;8.38;;
59300;SDS011;45073;52.740;6.784;2023-03-29T14:13:53;13.18;;;8.57;;
59300;SDS011;45073;52.740;6.784;2023-03-29T14:16:21;16.65;;;8.00;;
59300;SDS011;45073;52.740;6.784;2023-03-29T14:18:51;13.43;;;10.90;;
59300;SDS011;45073;52.740;6.784;2023-03-29T14:21:17;14.68;;;8.32;;
59300;SDS011;45073;52.740;6.784;2023-03-29T14:23:46;12.30;;;8.30;;
59300;SDS011;45073;52.740;6.784;2023-03-29T14:26:19;14.68;;;10.95;;
59300;SDS011;45073;52.740;6.784;2023-03-29T14:28:53;14.73;;;8.63;;
59300;SDS011;45073;52.740;6.784;2023-03-29T14:33:57;15.32;;;8.35;;
59300;SDS011;45073;52.740;6.784;2023-03-29T14:36:25;12.95;;;8.57;;
59300;SDS011;45073;52.740;6.784;2023-03-29T14:38:54;13.73;;;10.77;;
59300;SDS011;45073;52.740;6.784;2023-03-29T14:41:23;23.25;;;10.60;;
59300;SDS011;45073;52.740;6.784;2023-03-29T14:43:57;14.77;;;10.63;;
59300;SDS011;45073;52.740;6.784;2023-03-29T14:46:25;12.20;;;7.80;;
59300;SDS011;45073;52.740;6.784;2023-03-29T14:48:51;14.55;;;7.75;;
59300;SDS011;45073;52.740;6.784;2023-03-29T14:51:18;11.63;;;7.70;;
59300;SDS011;45073;52.740;6.784;2023-03-29T14:53:44;14.00;;;9.93;;
59300;SDS011;45073;52.740;6.784;2023-03-29T14:56:12;14.63;;;8.25;;
59300;SDS011;45073;52.740;6.784;2023-03-29T14:58:45;11.57;;;9.57;;
59300;SDS011;45073;52.740;6.784;2023-03-29T15:01:16;13.45;;;7.05;;
59300;SDS011;45073;52.740;6.784;2023-03-29T15:03:54;14.65;;;8.30;;
59300;SDS011;45073;52.740;6.784;2023-03-29T15:06:24;14.25;;;9.95;;
59300;SDS011;45073;52.740;6.784;2023-03-29T15:08:52;13.30;;;7.15;;
59300;SDS011;45073;52.740;6.784;2023-03-29T15:11:20;12.50;;;9.75;;
59300;SDS011;45073;52.740;6.784;2023-03-29T15:14:01;12.40;;;6.45;;
59300;SDS011;45073;52.740;6.784;2023-03-29T15:16:32;12.55;;;6.93;;
59300;SDS011;45073;52.740;6.784;2023-03-29T15:19:02;12.25;;;7.15;;
59300;SDS011;45073;52.740;6.784;2023-03-29T15:21:30;13.45;;;8.10;;
59300;SDS011;45073;52.740;6.784;2023-03-29T15:23:58;12.25;;;9.18;;
59300;SDS011;45073;52.740;6.784;2023-03-29T15:26:36;12.95;;;9.50;;
59300;SDS011;45073;52.740;6.784;2023-03-29T15:31:39;12.98;;;7.63;;
59300;SDS011;45073;52.740;6.784;2023-03-29T15:36:40;13.00;;;7.50;;
59300;SDS011;45073;52.740;6.784;2023-03-29T15:39:09;12.63;;;7.70;;
59300;SDS011;45073;52.740;6.784;2023-03-29T15:41:40;12.80;;;6.90;;
59300;SDS011;45073;52.740;6.784;2023-03-29T15:44:07;11.68;;;7.80;;
59300;SDS011;45073;52.740;6.784;2023-03-29T15:46:33;13.93;;;7.72;;
59300;SDS011;45073;52.740;6.784;2023-03-29T15:48:58;11.80;;;7.30;;
59300;SDS011;45073;52.740;6.784;2023-03-29T15:51:24;12.23;;;7.05;;
59300;SDS011;45073;52.740;6.784;2023-03-29T15:53:50;12.73;;;9.00;;
59300;SDS011;45073;52.740;6.784;2023-03-29T15:56:16;12.93;;;9.13;;
59300;SDS011;45073;52.740;6.784;2023-03-29T15:58:44;11.93;;;6.72;;
59300;SDS011;45073;52.740;6.784;2023-03-29T16:04:03;10.93;;;6.70;;
59300;SDS011;45073;52.740;6.784;2023-03-29T16:06:31;13.63;;;7.47;;
59300;SDS011;45073;52.740;6.784;2023-03-29T16:08:58;11.93;;;7.00;;
59300;SDS011;45073;52.740;6.784;2023-03-29T16:11:24;12.70;;;7.15;;
59300;SDS011;45073;52.740;6.784;2023-03-29T16:13:53;12.88;;;7.18;;
59300;SDS011;45073;52.740;6.784;2023-03-29T16:16:19;11.60;;;8.68;;
59300;SDS011;45073;52.740;6.784;2023-03-29T16:18:45;13.25;;;6.55;;
59300;SDS011;45073;52.740;6.784;2023-03-29T16:21:12;13.70;;;7.35;;
59300;SDS011;45073;52.740;6.784;2023-03-29T16:23:40;13.27;;;6.80;;
59300;SDS011;45073;52.740;6.784;2023-03-29T16:26:07;11.40;;;9.05;;
59300;SDS011;45073;52.740;6.784;2023-03-29T16:28:35;13.88;;;10.63;;
59300;SDS011;45073;52.740;6.784;2023-03-29T16:31:01;11.60;;;6.65;;
59300;SDS011;45073;52.740;6.784;2023-03-29T16:33:28;11.75;;;6.43;;
59300;SDS011;45073;52.740;6.784;2023-03-29T16:35:54;12.05;;;7.40;;
59300;SDS011;45073;52.740;6.784;2023-03-29T16:38:20;12.23;;;8.25;;
59300;SDS011;45073;52.740;6.784;2023-03-29T16:40:48;13.10;;;8.40;;
59300;SDS011;45073;52.740;6.784;2023-03-29T16:43:14;12.98;;;8.52;;
59300;SDS011;45073;52.740;6.784;2023-03-29T16:45:41;13.65;;;8.43;;
59300;SDS011;45073;52.740;6.784;2023-03-29T16:48:13;14.15;;;8.25;;
59300;SDS011;45073;52.740;6.784;2023-03-29T16:50:41;12.50;;;8.15;;
59300;SDS011;45073;52.740;6.784;2023-03-29T16:53:07;15.50;;;8.93;;
59300;SDS011;45073;52.740;6.784;2023-03-29T16:55:33;14.15;;;11.55;;
59300;SDS011;45073;52.740;6.784;2023-03-29T16:58:00;15.43;;;9.68;;